createdAt,value
2018-05-31T00:00:34.643Z,97938.55
2018-05-31T00:03:02.899Z,97946.00
2018-05-31T00:05:31.891Z,97944.45
2018-05-31T00:08:00.110Z,97950.58
2018-05-31T00:10:28.347Z,97940.55
2018-05-31T00:12:56.578Z,97936.37
2018-05-31T00:15:24.811Z,97932.78
2018-05-31T00:17:53.049Z,97931.48
2018-05-31T00:20:21.287Z,97935.23
2018-05-31T00:22:49.528Z,97937.58
2018-05-31T00:25:18.531Z,97936.52
2018-05-31T00:27:46.906Z,97935.27
2018-05-31T00:30:15.143Z,97939.55
2018-05-31T00:32:43.358Z,97939.94
2018-05-31T00:35:11.616Z,97948.23
2018-05-31T00:37:39.855Z,97949.00
2018-05-31T00:40:08.092Z,97947.91
2018-05-31T00:42:36.341Z,97961.30
2018-05-31T00:45:05.339Z,97955.42
2018-05-31T00:47:33.584Z,97956.45
2018-05-31T00:50:01.825Z,97954.65
2018-05-31T00:52:30.141Z,97962.81
2018-05-31T00:54:58.366Z,97967.22
2018-05-31T00:57:26.595Z,97963.23
2018-05-31T00:59:54.857Z,97967.38
2018-05-31T01:02:23.072Z,97966.67
2018-05-31T01:04:51.320Z,97963.67
2018-05-31T01:07:19.556Z,97954.91
2018-05-31T01:09:47.810Z,97953.03
2018-05-31T01:12:16.807Z,97949.03
2018-05-31T01:14:45.071Z,97949.42
2018-05-31T01:17:13.308Z,97947.69
2018-05-31T01:19:41.535Z,97945.10
2018-05-31T01:22:09.788Z,97944.09
2018-05-31T01:24:38.010Z,97942.09
2018-05-31T01:27:06.279Z,97937.77
2018-05-31T01:29:34.511Z,97936.80
2018-05-31T01:32:02.759Z,97936.42
2018-05-31T01:34:30.999Z,97939.53
2018-05-31T01:36:59.230Z,97937.65
2018-05-31T01:39:27.460Z,97941.80
2018-05-31T01:41:55.723Z,97949.52
2018-05-31T01:44:23.955Z,97952.17
2018-05-31T01:46:52.191Z,97953.38
2018-05-31T01:49:20.438Z,97957.33
2018-05-31T01:51:49.437Z,97954.95
2018-05-31T01:54:17.668Z,97944.27
2018-05-31T01:56:45.907Z,97946.07
2018-05-31T01:59:14.131Z,97951.61
2018-05-31T02:01:42.372Z,97949.59
2018-05-31T02:04:10.621Z,97951.44
2018-05-31T02:06:38.844Z,97940.63
2018-05-31T02:09:07.074Z,97946.46
2018-05-31T02:11:35.335Z,97945.97
2018-05-31T02:14:04.331Z,97936.49
2018-05-31T02:16:32.554Z,97943.80
2018-05-31T02:19:00.795Z,97948.89
2018-05-31T02:21:29.041Z,97951.22
2018-05-31T02:23:57.303Z,97947.28
2018-05-31T02:26:25.534Z,97946.98
2018-05-31T02:28:53.762Z,97944.22
2018-05-31T02:31:22.024Z,97956.36
2018-05-31T02:33:50.260Z,97951.05
2018-05-31T02:36:18.493Z,97947.09
2018-05-31T02:38:46.730Z,97948.27
2018-05-31T02:41:14.958Z,97951.73
2018-05-31T02:43:43.224Z,97953.66
2018-05-31T02:46:11.457Z,97951.39
2018-05-31T02:48:39.691Z,97954.10
2018-05-31T02:51:08.707Z,97959.13
2018-05-31T02:53:36.959Z,97958.23
2018-05-31T02:56:05.195Z,97952.63
2018-05-31T02:58:33.428Z,97948.81
2018-05-31T03:01:01.676Z,97950.95
2018-05-31T03:03:29.908Z,97949.64
2018-05-31T03:05:58.167Z,97951.82
2018-05-31T03:08:26.390Z,97958.76
2018-05-31T03:10:54.627Z,97959.89
2018-05-31T03:13:22.894Z,97960.25
2018-05-31T03:15:51.127Z,97960.70
2018-05-31T03:18:19.351Z,97964.13
2018-05-31T03:20:47.590Z,97970.13
2018-05-31T03:23:15.823Z,97969.20
2018-05-31T03:25:44.074Z,97964.84
2018-05-31T03:28:12.308Z,97963.97
2018-05-31T03:30:40.575Z,97967.03
2018-05-31T03:33:08.821Z,97967.61
2018-05-31T03:35:37.054Z,97971.41
2018-05-31T03:38:05.327Z,97973.84
2018-05-31T03:40:33.556Z,97971.67
2018-05-31T03:43:01.788Z,97966.45
2018-05-31T03:45:30.795Z,97966.61
2018-05-31T03:47:59.018Z,97966.84
2018-05-31T03:50:27.279Z,97966.59
2018-05-31T03:52:55.507Z,97961.50
2018-05-31T03:55:24.503Z,97960.61
2018-05-31T03:57:52.762Z,97964.02
2018-05-31T04:00:21.007Z,97959.52
2018-05-31T04:02:49.235Z,97963.44
2018-05-31T04:05:18.243Z,97963.62
2018-05-31T04:07:46.472Z,97961.42
2018-05-31T04:10:14.758Z,97957.14
2018-05-31T04:12:42.987Z,97954.52
2018-05-31T04:15:11.225Z,97953.73
2018-05-31T04:17:40.255Z,97952.27
2018-05-31T04:20:08.474Z,97957.23
2018-05-31T04:22:36.707Z,97964.97
2018-05-31T04:25:04.980Z,97962.56
2018-05-31T04:27:33.203Z,97965.52
2018-05-31T04:30:01.428Z,97976.30
2018-05-31T04:32:29.692Z,97979.70
2018-05-31T04:34:57.919Z,97981.41
2018-05-31T04:37:26.144Z,97974.27
2018-05-31T04:39:54.412Z,97976.33
2018-05-31T04:42:23.404Z,97984.84
2018-05-31T04:44:51.622Z,97980.91
2018-05-31T04:47:19.850Z,97977.00
2018-05-31T04:49:48.835Z,97980.45
2018-05-31T04:52:17.095Z,97979.68
2018-05-31T04:54:45.318Z,97984.20
2018-05-31T04:57:13.543Z,97988.59
2018-05-31T04:59:41.787Z,97980.94
2018-05-31T05:02:10.015Z,97976.53
2018-05-31T05:04:38.246Z,97981.07
2018-05-31T05:07:06.515Z,97987.58
2018-05-31T05:09:34.731Z,97990.52
2018-05-31T05:12:02.953Z,97983.95
2018-05-31T05:14:31.195Z,97980.48
2018-05-31T05:16:59.419Z,97979.78
2018-05-31T05:19:27.647Z,97979.75
2018-05-31T05:21:56.675Z,97974.59
2018-05-31T05:24:24.895Z,97980.39
2018-05-31T05:26:53.119Z,97988.43
2018-05-31T05:29:21.402Z,97990.77
2018-05-31T05:31:49.627Z,97989.13
2018-05-31T05:34:17.846Z,97999.11
2018-05-31T05:36:46.079Z,97985.67
2018-05-31T05:39:14.299Z,97996.29
2018-05-31T05:41:42.531Z,97996.56
2018-05-31T05:44:10.755Z,97992.83
2018-05-31T05:46:39.037Z,97989.84
2018-05-31T05:49:07.260Z,97994.43
2018-05-31T05:51:35.470Z,97990.93
2018-05-31T05:54:03.702Z,97986.72
2018-05-31T05:56:31.954Z,97987.75
2018-05-31T05:59:00.160Z,97996.36
2018-05-31T06:01:29.415Z,97992.14
2018-05-31T06:03:57.655Z,97987.90
2018-05-31T06:06:25.868Z,97985.30
2018-05-31T06:08:54.102Z,97988.91
2018-05-31T06:11:22.320Z,97992.70
2018-05-31T06:13:50.546Z,97997.56
2018-05-31T06:16:18.783Z,97998.52
2018-05-31T06:18:47.009Z,97997.03
2018-05-31T06:21:15.235Z,98007.47
2018-05-31T06:23:43.463Z,98009.13
2018-05-31T06:26:12.516Z,98012.10
2018-05-31T06:28:40.688Z,98013.34
2018-05-31T06:31:08.899Z,98018.57
2018-05-31T06:33:37.943Z,98021.48
2018-05-31T06:36:06.139Z,98024.58
2018-05-31T06:38:34.367Z,98026.64
2018-05-31T06:41:02.627Z,98031.17
2018-05-31T06:43:31.616Z,98027.45
2018-05-31T06:45:59.868Z,98026.63
2018-05-31T06:48:28.088Z,98032.92
2018-05-31T06:50:56.316Z,98028.91
2018-05-31T06:53:24.553Z,98024.77
2018-05-31T06:55:52.770Z,98026.91
2018-05-31T06:58:21.019Z,98030.53
2018-05-31T07:00:49.335Z,98027.33
2018-05-31T07:03:17.503Z,98029.59
2018-05-31T07:05:45.731Z,98030.84
2018-05-31T07:08:13.979Z,98024.98
2018-05-31T07:10:42.204Z,98023.39
2018-05-31T07:13:10.431Z,98020.12
2018-05-31T07:15:39.474Z,98023.23
2018-05-31T07:18:07.687Z,98025.81
2018-05-31T07:20:35.912Z,98024.33
2018-05-31T07:23:04.170Z,98019.02
2018-05-31T07:25:32.395Z,98021.36
2018-05-31T07:28:00.619Z,98023.92
2018-05-31T07:30:28.876Z,98019.33
2018-05-31T07:32:57.099Z,98015.85
2018-05-31T07:35:25.326Z,98012.95
2018-05-31T07:37:53.591Z,98015.50
2018-05-31T07:40:21.815Z,98018.20
2018-05-31T07:42:50.039Z,98022.65
2018-05-31T07:45:18.291Z,98030.43
2018-05-31T07:47:46.515Z,98026.15
2018-05-31T07:50:15.504Z,98026.22
2018-05-31T07:52:43.768Z,98023.55
2018-05-31T07:55:11.987Z,98025.83
2018-05-31T07:57:40.206Z,98033.45
2018-05-31T08:00:08.484Z,98023.20
2018-05-31T08:02:36.703Z,98019.34
2018-05-31T08:05:04.928Z,98026.63
2018-05-31T08:07:33.183Z,98029.22
2018-05-31T08:10:01.412Z,98027.71
2018-05-31T08:12:30.403Z,98035.92
2018-05-31T08:14:58.642Z,98030.02
2018-05-31T08:17:26.881Z,98020.81
2018-05-31T08:19:55.106Z,98023.53
2018-05-31T08:22:23.354Z,98024.95
2018-05-31T08:24:51.583Z,98019.00
2018-05-31T08:27:19.803Z,98022.98
2018-05-31T08:29:48.035Z,98024.47
2018-05-31T08:32:17.023Z,98023.94
2018-05-31T08:34:45.240Z,98016.48
2018-05-31T08:37:13.487Z,98016.10
2018-05-31T08:39:42.471Z,98010.69
2018-05-31T08:42:10.699Z,98016.23
2018-05-31T08:44:38.980Z,98022.22
2018-05-31T08:47:07.217Z,98016.56
2018-05-31T08:49:36.207Z,98013.04
2018-05-31T08:52:04.565Z,98017.20
2018-05-31T08:54:32.788Z,98020.21
2018-05-31T08:57:01.007Z,98025.38
2018-05-31T08:59:29.248Z,98024.11
2018-05-31T09:01:57.481Z,98017.40
2018-05-31T09:04:25.694Z,98018.11
2018-05-31T09:06:53.916Z,98016.63
2018-05-31T09:09:22.211Z,98022.19
2018-05-31T09:11:50.395Z,98016.68
2018-05-31T09:14:19.375Z,98015.04
2018-05-31T09:16:47.627Z,98011.30
2018-05-31T09:19:15.846Z,98010.30
2018-05-31T09:21:44.081Z,98012.31
2018-05-31T09:24:12.315Z,98014.80
2018-05-31T09:26:40.538Z,98006.13
2018-05-31T09:29:08.757Z,98015.97
2018-05-31T09:31:36.992Z,98006.77
2018-05-31T09:34:05.214Z,98006.44
2018-05-31T09:36:33.437Z,98001.53
2018-05-31T09:39:01.684Z,98006.16
2018-05-31T09:41:29.911Z,98004.89
2018-05-31T09:43:58.899Z,97994.95
2018-05-31T09:46:27.171Z,98001.84
2018-05-31T09:48:55.387Z,98002.00
2018-05-31T09:51:23.603Z,98000.02
2018-05-31T09:53:51.864Z,97999.58
2018-05-31T09:56:20.088Z,97998.05
2018-05-31T09:58:48.314Z,97991.42
2018-05-31T10:01:16.567Z,98001.53
2018-05-31T10:03:44.792Z,98003.63
2018-05-31T10:06:13.004Z,97996.45
2018-05-31T10:08:41.255Z,97991.65
2018-05-31T10:11:09.475Z,97988.80
2018-05-31T10:13:37.703Z,97989.88
2018-05-31T10:16:05.959Z,97984.16
2018-05-31T10:18:34.176Z,97980.11
2018-05-31T10:21:02.396Z,97980.20
2018-05-31T10:23:30.669Z,97978.21
2018-05-31T10:25:58.883Z,97982.36
2018-05-31T10:28:27.862Z,97982.44
2018-05-31T10:30:56.127Z,97974.88
2018-05-31T10:33:24.351Z,97975.95
2018-05-31T10:35:53.335Z,97970.67
2018-05-31T10:38:21.583Z,97967.20
2018-05-31T10:40:49.800Z,97964.27
2018-05-31T10:43:18.019Z,97958.42
2018-05-31T10:45:46.276Z,97963.11
2018-05-31T10:48:14.495Z,97958.69
2018-05-31T10:50:42.728Z,97957.06
2018-05-31T10:53:10.971Z,97952.65
2018-05-31T10:55:39.959Z,97949.95
2018-05-31T10:58:08.181Z,97950.09
2018-05-31T11:00:36.447Z,97954.03
2018-05-31T11:03:04.676Z,97956.80
2018-05-31T11:05:32.890Z,97956.06
2018-05-31T11:08:01.172Z,97954.41
2018-05-31T11:10:29.395Z,97948.37
2018-05-31T11:12:57.619Z,97948.52
2018-05-31T11:15:25.871Z,97953.87
2018-05-31T11:17:54.850Z,97956.43
2018-05-31T11:20:23.083Z,97946.95
2018-05-31T11:22:51.318Z,97947.92
2018-05-31T11:25:20.302Z,97949.84
2018-05-31T11:27:48.519Z,97948.47
2018-05-31T11:30:16.768Z,97945.89
2018-05-31T11:32:44.987Z,97953.13
2018-05-31T11:35:13.215Z,97952.09
2018-05-31T11:37:41.447Z,97939.59
2018-05-31T11:40:09.675Z,97941.62
2018-05-31T11:42:37.897Z,97937.11
2018-05-31T11:45:06.155Z,97931.05
2018-05-31T11:47:34.379Z,97933.18
2018-05-31T11:50:02.615Z,97932.62
2018-05-31T11:52:30.864Z,97920.34
2018-05-31T11:54:59.087Z,97921.73
2018-05-31T11:57:27.311Z,97929.76
2018-05-31T11:59:55.580Z,97920.56
2018-05-31T12:02:23.800Z,97916.40
2018-05-31T12:04:52.023Z,97910.96
2018-05-31T12:07:21.048Z,97897.12
2018-05-31T12:09:49.269Z,97901.72
2018-05-31T12:12:17.547Z,97894.94
2018-05-31T12:14:45.740Z,97897.80
2018-05-31T12:17:14.719Z,97898.67
2018-05-31T12:19:42.947Z,97898.55
2018-05-31T12:22:11.212Z,97901.52
2018-05-31T12:24:39.438Z,97897.99
2018-05-31T12:27:08.531Z,97909.19
2018-05-31T12:29:36.789Z,97904.97
2018-05-31T12:32:05.007Z,97900.04
2018-05-31T12:34:33.223Z,97884.06
2018-05-31T12:37:01.468Z,97886.14
2018-05-31T12:39:30.455Z,97876.78
2018-05-31T12:41:58.676Z,97879.89
2018-05-31T12:44:26.920Z,97878.91
2018-05-31T12:46:55.135Z,97871.97
2018-05-31T12:49:23.355Z,97871.66
2018-05-31T12:51:51.618Z,97873.97
2018-05-31T12:54:19.834Z,97865.77
2018-05-31T12:56:48.055Z,97861.92
2018-05-31T12:59:16.306Z,97860.81
2018-05-31T13:01:44.532Z,97862.25
2018-05-31T13:04:12.747Z,97851.70
2018-05-31T13:06:40.995Z,97855.70
2018-05-31T13:09:09.210Z,97854.51
2018-05-31T13:11:37.430Z,97849.95
2018-05-31T13:14:05.691Z,97853.91
2018-05-31T13:16:33.917Z,97850.02
2018-05-31T13:19:02.139Z,97848.25
2018-05-31T13:21:30.388Z,97852.61
2018-05-31T13:23:58.605Z,97843.47
2018-05-31T13:26:26.827Z,97838.95
2018-05-31T13:28:55.083Z,97836.63
2018-05-31T13:31:23.305Z,97833.36
2018-05-31T13:33:51.527Z,97826.83
2018-05-31T13:36:19.790Z,97819.21
2018-05-31T13:38:48.011Z,97825.84
2018-05-31T13:41:16.235Z,97826.55
2018-05-31T13:43:44.490Z,97830.66
2018-05-31T13:46:12.714Z,97830.52
2018-05-31T13:48:40.942Z,97826.63
2018-05-31T13:51:09.291Z,97828.28
2018-05-31T13:53:37.555Z,97832.71
2018-05-31T13:56:05.779Z,97845.53
2018-05-31T13:58:34.007Z,97846.62
2018-05-31T14:01:02.227Z,97854.14
2018-05-31T14:03:30.455Z,97860.50
2018-05-31T14:05:58.699Z,97866.66
2018-05-31T14:08:26.919Z,97869.84
2018-05-31T14:10:55.143Z,97879.37
2018-05-31T14:13:23.408Z,97886.98
2018-05-31T14:15:51.628Z,97887.78
2018-05-31T14:18:19.856Z,97890.95
2018-05-31T14:20:48.111Z,97884.53
2018-05-31T14:23:16.335Z,97883.25
2018-05-31T14:25:45.331Z,97883.34
2018-05-31T14:28:13.563Z,97879.09
2018-05-31T14:30:41.782Z,97884.28
2018-05-31T14:33:10.963Z,97872.47
2018-05-31T14:35:39.174Z,97873.80
2018-05-31T14:38:07.400Z,97869.35
2018-05-31T14:40:35.635Z,97866.22
2018-05-31T14:43:03.859Z,97866.35
2018-05-31T14:45:32.075Z,97871.54
2018-05-31T14:48:00.332Z,97865.50
2018-05-31T14:50:29.498Z,97860.51
2018-05-31T14:52:57.715Z,97868.41
2018-05-31T14:55:26.727Z,97854.22
2018-05-31T14:57:54.943Z,97870.48
2018-05-31T15:00:23.167Z,97857.55
2018-05-31T15:02:51.427Z,97858.19
2018-05-31T15:05:20.410Z,97867.89
2018-05-31T15:07:48.640Z,97869.03
2018-05-31T15:10:16.893Z,97873.97
2018-05-31T15:12:45.114Z,97869.33
2018-05-31T15:15:13.344Z,97869.05
2018-05-31T15:17:41.608Z,97870.26
2018-05-31T15:20:09.837Z,97858.80
2018-05-31T15:22:38.052Z,97861.56
2018-05-31T15:25:07.052Z,97861.45
2018-05-31T15:27:35.276Z,97862.91
2018-05-31T15:30:03.536Z,97854.45
2018-05-31T15:32:31.755Z,97849.44
2018-05-31T15:34:59.979Z,97843.30
2018-05-31T15:37:28.250Z,97850.45
2018-05-31T15:39:56.487Z,97847.23
2018-05-31T15:42:24.703Z,97851.29
2018-05-31T15:44:52.958Z,97847.22
2018-05-31T15:47:21.938Z,97845.45
2018-05-31T15:49:50.167Z,97850.54
2018-05-31T15:52:18.448Z,97843.81
2018-05-31T15:54:46.669Z,97854.60
2018-05-31T15:57:14.892Z,97856.34
2018-05-31T15:59:43.127Z,97864.37
2018-05-31T16:02:11.348Z,97866.43
2018-05-31T16:04:39.571Z,97871.48
2018-05-31T16:07:07.832Z,97867.67
2018-05-31T16:09:36.047Z,97868.11
2018-05-31T16:12:04.267Z,97874.91
2018-05-31T16:14:32.508Z,97868.95
2018-05-31T16:17:00.739Z,97868.58
2018-05-31T16:19:28.964Z,97867.70
2018-05-31T16:21:57.318Z,97868.63
2018-05-31T16:24:26.303Z,97873.96
2018-05-31T16:26:54.523Z,97869.81
2018-05-31T16:29:22.774Z,97873.17
2018-05-31T16:31:50.997Z,97875.34
2018-05-31T16:34:19.218Z,97872.17
2018-05-31T16:36:47.488Z,97870.58
2018-05-31T16:39:15.703Z,97875.59
2018-05-31T16:41:43.926Z,97866.80
2018-05-31T16:44:12.932Z,97864.85
2018-05-31T16:46:41.159Z,97855.61
2018-05-31T16:49:09.374Z,97854.20
2018-05-31T16:51:38.399Z,97853.05
2018-05-31T16:54:06.623Z,97855.09
2018-05-31T16:56:34.843Z,97845.11
2018-05-31T16:59:03.108Z,97839.36
2018-05-31T17:01:32.094Z,97835.05
2018-05-31T17:04:00.311Z,97837.45
2018-05-31T17:06:28.566Z,97830.41
2018-05-31T17:08:56.791Z,97822.11
2018-05-31T17:11:25.019Z,97824.71
2018-05-31T17:13:53.282Z,97817.19
2018-05-31T17:16:21.518Z,97818.44
2018-05-31T17:18:49.736Z,97820.89
2018-05-31T17:21:18.747Z,97819.94
2018-05-31T17:23:46.959Z,97826.09
2018-05-31T17:26:15.179Z,97824.39
2018-05-31T17:28:44.242Z,97833.14
2018-05-31T17:31:12.468Z,97834.16
2018-05-31T17:33:40.686Z,97840.53
2018-05-31T17:36:08.947Z,97848.14
2018-05-31T17:38:37.172Z,97857.30
2018-05-31T17:41:06.164Z,97869.45
2018-05-31T17:43:34.418Z,97884.20
2018-05-31T17:46:02.640Z,97888.58
2018-05-31T17:48:30.868Z,97882.57
2018-05-31T17:50:59.161Z,97876.48
2018-05-31T17:53:27.363Z,97861.87
2018-05-31T17:55:55.579Z,97860.18
2018-05-31T17:58:23.809Z,97863.36
2018-05-31T18:00:52.027Z,97858.66
2018-05-31T18:03:20.305Z,97857.48
2018-05-31T18:05:48.527Z,97852.08
2018-05-31T18:08:16.746Z,97852.12
2018-05-31T18:10:44.971Z,97860.82
2018-05-31T18:13:13.964Z,97862.62
2018-05-31T18:15:42.202Z,97870.05
2018-05-31T18:18:10.427Z,97880.63
2018-05-31T18:20:39.410Z,97886.03
2018-05-31T18:23:07.647Z,97896.72
2018-05-31T18:25:35.876Z,97899.20
2018-05-31T18:28:04.883Z,97900.59
2018-05-31T18:30:33.119Z,97901.51
2018-05-31T18:33:01.331Z,97904.06
2018-05-31T18:35:29.583Z,97909.75
2018-05-31T18:37:58.572Z,97909.86
2018-05-31T18:40:26.803Z,97907.14
2018-05-31T18:42:55.054Z,97901.03
2018-05-31T18:45:23.291Z,97906.81
2018-05-31T18:47:51.701Z,97898.72
2018-05-31T18:50:19.962Z,97908.23
2018-05-31T18:52:48.195Z,97906.92
2018-05-31T18:55:16.428Z,97917.25
2018-05-31T18:57:44.674Z,97920.59
2018-05-31T19:00:12.896Z,97923.23
2018-05-31T19:02:41.111Z,97921.34
2018-05-31T19:05:09.368Z,97911.55
2018-05-31T19:07:37.591Z,97911.34
2018-05-31T19:10:06.579Z,97903.80
2018-05-31T19:12:40.675Z,97904.14
2018-05-31T19:15:08.897Z,97890.42
2018-05-31T19:17:37.122Z,97891.73
2018-05-31T19:20:05.360Z,97894.03
2018-05-31T19:22:33.635Z,97891.70
2018-05-31T19:25:07.932Z,97884.48
2018-05-31T19:27:36.155Z,97888.38
2018-05-31T19:30:09.927Z,97887.76
2018-05-31T19:32:38.145Z,97886.22
2018-05-31T19:35:06.400Z,97891.33
2018-05-31T19:37:34.655Z,97892.22
2018-05-31T19:40:02.867Z,97884.11
2018-05-31T19:42:36.368Z,97893.12
2018-05-31T19:45:04.589Z,97901.45
2018-05-31T19:47:32.823Z,97910.30
2018-05-31T19:50:01.048Z,97921.91
2018-05-31T19:52:35.344Z,97934.77
2018-05-31T19:55:03.559Z,97940.50
2018-05-31T19:57:31.775Z,97941.73
2018-05-31T20:00:05.407Z,97942.03
2018-05-31T20:02:39.835Z,97940.47
2018-05-31T20:05:08.831Z,97941.06
2018-05-31T20:07:37.066Z,97946.77
2018-05-31T20:10:05.318Z,97943.30
2018-05-31T20:12:33.687Z,97945.55
2018-05-31T20:15:01.843Z,97940.45
2018-05-31T20:17:30.104Z,97940.12
2018-05-31T20:19:59.116Z,97938.64
2018-05-31T20:22:27.347Z,97945.02
2018-05-31T20:24:55.616Z,97951.13
2018-05-31T20:27:23.838Z,97947.13
2018-05-31T20:29:52.065Z,97949.53
2018-05-31T20:32:20.324Z,97950.80
2018-05-31T20:34:48.551Z,97946.88
2018-05-31T20:37:16.771Z,97946.72
2018-05-31T20:39:45.028Z,97943.69
2018-05-31T20:42:13.251Z,97945.80
2018-05-31T20:44:41.466Z,97940.41
2018-05-31T20:47:09.708Z,97941.75
2018-05-31T20:49:37.935Z,97938.41
2018-05-31T20:52:06.163Z,97939.05
2018-05-31T20:54:34.516Z,97941.11
2018-05-31T20:57:02.779Z,97931.62
2018-05-31T20:59:31.003Z,97936.41
2018-05-31T21:01:59.255Z,97928.71
2018-05-31T21:04:27.470Z,97916.94
2018-05-31T21:06:55.697Z,97897.48
2018-05-31T21:09:23.955Z,97894.66
2018-05-31T21:11:52.236Z,97886.66
2018-05-31T21:14:20.409Z,97889.44
2018-05-31T21:16:48.664Z,97889.11
2018-05-31T21:19:16.896Z,97892.48
2018-05-31T21:21:45.118Z,97899.53
2018-05-31T21:24:13.363Z,97916.69
2018-05-31T21:26:41.589Z,97919.15
2018-05-31T21:29:09.820Z,97931.47
2018-05-31T21:31:38.069Z,97919.81
2018-05-31T21:34:06.302Z,97905.42
2018-05-31T21:36:34.565Z,97915.16
2018-05-31T21:39:03.584Z,97932.00
2018-05-31T21:41:31.812Z,97936.77
2018-05-31T21:44:00.032Z,97936.65
2018-05-31T21:46:28.283Z,97943.25
2018-05-31T21:48:57.270Z,97961.78
2018-05-31T21:51:25.503Z,97954.52
2018-05-31T21:53:53.779Z,97973.58
2018-05-31T21:56:22.011Z,97983.81
2018-05-31T21:58:50.233Z,97994.24
2018-05-31T22:01:18.501Z,98023.90
2018-05-31T22:03:46.724Z,98080.99
2018-05-31T22:06:14.946Z,98116.49
2018-05-31T22:08:43.199Z,98115.72
2018-05-31T22:11:11.428Z,98137.75
2018-05-31T22:13:39.647Z,98139.39
2018-05-31T22:16:07.888Z,98149.08
2018-05-31T22:18:36.107Z,98159.53
2018-05-31T22:21:04.331Z,98165.28
2018-05-31T22:23:32.574Z,98164.08
2018-05-31T22:26:00.789Z,98192.09
2018-05-31T22:28:29.007Z,98195.50
2018-05-31T22:30:57.268Z,98208.30
2018-05-31T22:33:26.258Z,98206.94
2018-05-31T22:35:54.475Z,98195.37
2018-05-31T22:38:22.739Z,98189.84
2018-05-31T22:40:50.958Z,98199.80
2018-05-31T22:43:19.175Z,98202.44
2018-05-31T22:45:47.468Z,98212.71
2018-05-31T22:48:15.652Z,98227.15
2018-05-31T22:50:43.870Z,98238.94
2018-05-31T22:53:12.131Z,98249.77
2018-05-31T22:55:40.350Z,98247.64
2018-05-31T22:58:08.572Z,98263.08
2018-05-31T23:00:36.815Z,98278.94
2018-05-31T23:03:05.089Z,98284.34
2018-05-31T23:05:34.048Z,98278.03
2018-05-31T23:08:02.304Z,98254.91
2018-05-31T23:10:30.527Z,98240.87
2018-05-31T23:12:58.754Z,98243.27
2018-05-31T23:15:26.999Z,98263.63
2018-05-31T23:17:55.227Z,98280.46
2018-05-31T23:20:23.447Z,98289.61
2018-05-31T23:22:51.706Z,98289.84
2018-05-31T23:25:19.931Z,98290.50
2018-05-31T23:27:48.155Z,98287.92
2018-05-31T23:30:16.398Z,98277.96
2018-05-31T23:32:44.611Z,98275.07
2018-05-31T23:35:12.834Z,98272.44
2018-05-31T23:37:41.088Z,98271.09
2018-05-31T23:40:09.351Z,98268.46
2018-05-31T23:42:37.566Z,98266.91
2018-05-31T23:45:05.807Z,98267.08
2018-05-31T23:47:34.042Z,98248.41
2018-05-31T23:50:03.033Z,98243.00
2018-05-31T23:52:31.280Z,98240.23
2018-05-31T23:54:59.515Z,98262.23
2018-05-31T23:57:27.743Z,98275.78
2018-05-31T23:59:56.046Z,98294.01
